createdAt,value
2023-03-17T00:00:17.024Z,1005.48
2023-03-17T00:01:17.004Z,1005.44
2023-03-17T00:02:16.995Z,1005.40
2023-03-17T00:03:17.965Z,1005.41
2023-03-17T00:04:16.957Z,1005.46
2023-03-17T00:05:17.079Z,1005.47
2023-03-17T00:06:16.935Z,1005.48
2023-03-17T00:07:16.924Z,1005.38
2023-03-17T00:08:16.900Z,1005.41
2023-03-17T00:09:16.891Z,1005.30
2023-03-17T00:10:16.880Z,1005.32
2023-03-17T00:11:16.952Z,1005.39
2023-03-17T00:12:17.798Z,1005.47
2023-03-17T00:13:16.839Z,1005.48
2023-03-17T00:14:16.841Z,1005.45
2023-03-17T00:15:16.821Z,1005.51
2023-03-17T00:16:16.951Z,1005.50
2023-03-17T00:17:16.818Z,1005.49
2023-03-17T00:18:16.769Z,1005.48
2023-03-17T00:19:16.759Z,1005.50
2023-03-17T00:20:16.750Z,1005.48
2023-03-17T00:21:16.804Z,1005.52
2023-03-17T00:22:16.724Z,1005.55
2023-03-17T00:23:16.763Z,1005.54
2023-03-17T00:24:16.711Z,1005.52
2023-03-17T00:25:16.705Z,1005.51
2023-03-17T00:26:16.666Z,1005.47
2023-03-17T00:27:16.670Z,1005.47
2023-03-17T00:28:16.658Z,1005.46
2023-03-17T00:29:16.655Z,1005.48
2023-03-17T00:30:16.622Z,1005.48
2023-03-17T00:31:17.595Z,1005.47
2023-03-17T00:32:16.596Z,1005.46
2023-03-17T00:33:16.596Z,1005.47
2023-03-17T00:34:16.557Z,1005.46
2023-03-17T00:35:16.611Z,1005.44
2023-03-17T00:36:16.538Z,1005.50
2023-03-17T00:37:16.536Z,1005.45
2023-03-17T00:38:16.513Z,1005.46
2023-03-17T00:39:21.680Z,1005.50
2023-03-17T00:40:16.500Z,1005.47
2023-03-17T00:41:16.512Z,1005.46
2023-03-17T00:42:16.470Z,1005.47
2023-03-17T00:43:16.454Z,1005.52
2023-03-17T00:44:16.439Z,1005.46
2023-03-17T00:45:16.418Z,1005.46
2023-03-17T00:46:16.592Z,1005.50
2023-03-17T00:47:16.423Z,1005.59
2023-03-17T00:48:16.392Z,1005.66
2023-03-17T00:49:50.690Z,1005.72
2023-03-17T00:50:50.682Z,1005.64
2023-03-17T00:51:51.379Z,1005.68
2023-03-17T00:52:50.682Z,1005.67
2023-03-17T00:53:50.665Z,1005.66
2023-03-17T00:54:50.621Z,1005.67
2023-03-17T00:55:50.615Z,1005.70
2023-03-17T00:56:50.609Z,1005.65
2023-03-17T00:57:50.584Z,1005.67
2023-03-17T00:58:50.685Z,1005.72
2023-03-17T00:59:50.554Z,1005.67
2023-03-17T01:00:50.568Z,1005.68
2023-03-17T01:01:51.495Z,1005.70
2023-03-17T01:02:51.474Z,1005.72
2023-03-17T01:03:50.513Z,1005.73
2023-03-17T01:04:59.922Z,1005.73
2023-03-17T01:05:52.433Z,1005.78
2023-03-17T01:06:50.480Z,1005.73
2023-03-17T01:07:51.406Z,1005.72
2023-03-17T01:08:50.446Z,1005.73
2023-03-17T01:09:50.429Z,1005.70
2023-03-17T01:10:50.462Z,1005.71
2023-03-17T01:11:51.364Z,1005.67
2023-03-17T01:12:50.399Z,1005.64
2023-03-17T01:13:50.387Z,1005.60
2023-03-17T01:14:50.368Z,1005.60
2023-03-17T01:15:50.351Z,1005.60
2023-03-17T01:16:50.363Z,1005.56
2023-03-17T01:17:50.329Z,1005.57
2023-03-17T01:18:50.376Z,1005.52
2023-03-17T01:19:50.300Z,1005.48
2023-03-17T01:20:50.302Z,1005.49
2023-03-17T01:21:50.304Z,1005.51
2023-03-17T01:22:50.292Z,1005.52
2023-03-17T01:23:50.257Z,1005.52
2023-03-17T01:24:50.248Z,1005.51
2023-03-17T01:25:50.272Z,1005.50
2023-03-17T01:26:50.225Z,1005.48
2023-03-17T01:27:50.210Z,1005.44
2023-03-17T01:28:50.325Z,1005.50
2023-03-17T01:29:50.175Z,1005.48
2023-03-17T01:30:50.183Z,1005.39
2023-03-17T01:31:50.162Z,1005.41
2023-03-17T01:32:50.229Z,1005.33
2023-03-17T01:33:51.094Z,1005.26
2023-03-17T01:34:50.141Z,1005.21
2023-03-17T01:35:50.131Z,1005.16
2023-03-17T01:36:50.090Z,1005.10
2023-03-17T01:37:50.070Z,1005.12
2023-03-17T01:38:50.060Z,1005.08
2023-03-17T01:39:50.054Z,1005.08
2023-03-17T01:40:50.069Z,1005.16
2023-03-17T01:41:50.038Z,1005.17
2023-03-17T01:42:50.012Z,1005.15
2023-03-17T01:43:50.000Z,1005.19
2023-03-17T01:44:49.993Z,1005.22
2023-03-17T01:45:49.990Z,1005.19
2023-03-17T01:46:49.994Z,1005.21
2023-03-17T01:47:49.966Z,1005.17
2023-03-17T01:48:49.936Z,1005.18
2023-03-17T01:49:49.915Z,1005.16
2023-03-17T01:50:49.923Z,1005.13
2023-03-17T01:51:49.902Z,1005.11
2023-03-17T01:52:49.908Z,1005.14
2023-03-17T01:53:49.869Z,1005.10
2023-03-17T01:54:49.867Z,1005.16
2023-03-17T01:55:49.848Z,1005.12
2023-03-17T01:56:49.846Z,1005.08
2023-03-17T01:57:49.821Z,1005.02
2023-03-17T01:58:49.834Z,1005.07
2023-03-17T01:59:49.798Z,1005.03
2023-03-17T02:00:49.853Z,1005.01
2023-03-17T02:01:49.792Z,1005.01
2023-03-17T02:02:49.783Z,1005.00
2023-03-17T02:03:49.756Z,1005.06
2023-03-17T02:04:49.753Z,1004.98
2023-03-17T02:05:50.670Z,1005.02
2023-03-17T02:07:05.046Z,1005.01
2023-03-17T02:07:50.706Z,1005.07
2023-03-17T02:08:49.683Z,1005.02
2023-03-17T02:09:49.703Z,1004.96
2023-03-17T02:10:49.732Z,1004.95
2023-03-17T02:11:49.649Z,1004.91
2023-03-17T02:12:49.656Z,1004.83
2023-03-17T02:13:49.621Z,1004.75
2023-03-17T02:14:49.623Z,1004.75
2023-03-17T02:15:49.606Z,1004.70
2023-03-17T02:16:49.643Z,1004.72
2023-03-17T02:17:49.568Z,1004.77
2023-03-17T02:18:49.599Z,1004.76
2023-03-17T02:19:49.536Z,1004.83
2023-03-17T02:20:49.527Z,1004.90
2023-03-17T02:21:49.516Z,1004.95
2023-03-17T02:22:49.554Z,1004.92
2023-03-17T02:23:50.450Z,1004.96
2023-03-17T02:24:49.494Z,1004.90
2023-03-17T02:25:49.460Z,1004.90
2023-03-17T02:26:49.465Z,1004.88
2023-03-17T02:27:49.448Z,1004.82
2023-03-17T02:28:49.466Z,1004.86
2023-03-17T02:29:49.421Z,1004.87
2023-03-17T02:30:49.455Z,1004.80
2023-03-17T02:31:49.382Z,1004.84
2023-03-17T02:32:49.462Z,1004.86
2023-03-17T02:33:50.331Z,1004.89
2023-03-17T02:34:49.408Z,1004.92
2023-03-17T02:35:49.386Z,1004.91
2023-03-17T02:36:49.375Z,1004.89
2023-03-17T02:37:49.331Z,1004.88
2023-03-17T02:38:49.307Z,1004.81
2023-03-17T02:39:49.294Z,1004.71
2023-03-17T02:40:50.258Z,1004.72
2023-03-17T02:41:49.273Z,1004.75
2023-03-17T02:42:49.268Z,1004.78
2023-03-17T02:43:49.251Z,1004.86
2023-03-17T02:44:49.239Z,1004.83
2023-03-17T02:45:49.268Z,1004.85
2023-03-17T02:46:49.336Z,1004.78
2023-03-17T02:47:49.206Z,1004.78
2023-03-17T02:48:49.185Z,1004.82
2023-03-17T02:49:49.192Z,1004.79
2023-03-17T02:50:49.186Z,1004.79
2023-03-17T02:51:49.154Z,1004.87
2023-03-17T02:52:49.266Z,1004.84
2023-03-17T02:53:49.116Z,1004.89
2023-03-17T02:54:49.128Z,1004.91
2023-03-17T02:55:49.095Z,1004.87
2023-03-17T02:56:49.078Z,1004.85
2023-03-17T02:57:49.061Z,1004.85
2023-03-17T02:58:49.106Z,1004.80
2023-03-17T02:59:49.038Z,1004.84
2023-03-17T03:00:49.050Z,1004.76
2023-03-17T03:01:49.084Z,1004.73
2023-03-17T03:02:49.046Z,1004.67
2023-03-17T03:03:49.002Z,1004.69
2023-03-17T03:04:49.109Z,1004.70
2023-03-17T03:05:48.985Z,1004.68
2023-03-17T03:06:48.965Z,1004.69
2023-03-17T03:07:48.970Z,1004.71
2023-03-17T03:08:48.925Z,1004.72
2023-03-17T03:09:48.916Z,1004.73
2023-03-17T03:10:49.031Z,1004.72
2023-03-17T03:11:48.892Z,1004.74
2023-03-17T03:12:48.887Z,1004.72
2023-03-17T03:13:48.868Z,1004.74
2023-03-17T03:14:48.858Z,1004.79
2023-03-17T03:15:48.885Z,1004.75
2023-03-17T03:16:48.858Z,1004.76
2023-03-17T03:17:49.772Z,1004.78
2023-03-17T03:18:48.811Z,1004.74
2023-03-17T03:19:48.790Z,1004.77
2023-03-17T03:20:48.794Z,1004.74
2023-03-17T03:21:48.761Z,1004.75
2023-03-17T03:22:48.862Z,1004.72
2023-03-17T03:23:48.758Z,1004.70
2023-03-17T03:24:48.753Z,1004.72
2023-03-17T03:25:48.739Z,1004.73
2023-03-17T03:26:48.708Z,1004.73
2023-03-17T03:27:48.695Z,1004.73
2023-03-17T03:28:48.715Z,1004.71
2023-03-17T03:29:49.636Z,1004.74
2023-03-17T03:30:48.696Z,1004.70
2023-03-17T03:31:48.670Z,1004.73
2023-03-17T03:32:49.622Z,1004.76
2023-03-17T03:33:48.616Z,1004.65
2023-03-17T03:34:48.660Z,1004.64
2023-03-17T03:35:48.626Z,1004.67
2023-03-17T03:36:48.577Z,1004.65
2023-03-17T03:37:48.561Z,1004.64
2023-03-17T03:38:48.549Z,1004.65
2023-03-17T03:39:48.537Z,1004.62
2023-03-17T03:40:48.568Z,1004.68
2023-03-17T03:41:48.510Z,1004.66
2023-03-17T03:42:48.508Z,1004.64
2023-03-17T03:43:48.477Z,1004.64
2023-03-17T03:44:48.482Z,1004.59
2023-03-17T03:45:48.451Z,1004.65
2023-03-17T03:46:48.504Z,1004.67
2023-03-17T03:47:48.433Z,1004.66
2023-03-17T03:48:48.424Z,1004.66
2023-03-17T03:49:48.410Z,1004.73
2023-03-17T03:50:48.405Z,1004.65
2023-03-17T03:51:48.389Z,1004.68
2023-03-17T03:52:48.410Z,1004.66
2023-03-17T03:53:49.300Z,1004.70
2023-03-17T03:54:48.347Z,1004.69
2023-03-17T03:55:48.340Z,1004.72
2023-03-17T03:56:48.348Z,1004.73
2023-03-17T03:57:48.301Z,1004.73
2023-03-17T03:58:48.321Z,1004.77
2023-03-17T03:59:48.289Z,1004.73
2023-03-17T04:00:48.270Z,1004.71
2023-03-17T04:01:48.268Z,1004.72
2023-03-17T04:02:48.303Z,1004.73
2023-03-17T04:03:48.231Z,1004.64
2023-03-17T04:04:48.390Z,1004.61
2023-03-17T04:05:48.210Z,1004.61
2023-03-17T04:06:48.202Z,1004.60
2023-03-17T04:07:48.189Z,1004.55
2023-03-17T04:08:48.170Z,1004.50
2023-03-17T04:09:48.145Z,1004.52
2023-03-17T04:10:48.173Z,1004.59
2023-03-17T04:11:48.130Z,1004.54
2023-03-17T04:12:48.119Z,1004.52
2023-03-17T04:13:48.102Z,1004.49
2023-03-17T04:14:48.146Z,1004.50
2023-03-17T04:15:48.110Z,1004.49
2023-03-17T04:16:48.096Z,1004.56
2023-03-17T04:17:48.067Z,1004.52
2023-03-17T04:18:48.092Z,1004.53
2023-03-17T04:19:48.026Z,1004.53
2023-03-17T04:20:48.022Z,1004.53
2023-03-17T04:21:47.990Z,1004.57
2023-03-17T04:22:48.098Z,1004.54
2023-03-17T04:23:47.974Z,1004.57
2023-03-17T04:24:47.957Z,1004.58
2023-03-17T04:25:47.941Z,1004.54
2023-03-17T04:26:47.931Z,1004.50
2023-03-17T04:27:47.932Z,1004.52
2023-03-17T04:28:47.953Z,1004.54
2023-03-17T04:29:47.900Z,1004.49
2023-03-17T04:30:47.883Z,1004.50
2023-03-17T04:31:47.927Z,1004.47
2023-03-17T04:32:48.864Z,1004.46
2023-03-17T04:33:47.860Z,1004.49
2023-03-17T04:34:47.935Z,1004.49
2023-03-17T04:35:47.827Z,1004.48
2023-03-17T04:36:47.810Z,1004.50
2023-03-17T04:37:47.807Z,1004.39
2023-03-17T04:38:47.789Z,1004.37
2023-03-17T04:39:47.768Z,1004.25
2023-03-17T04:40:47.809Z,1004.25
2023-03-17T04:41:47.745Z,1004.24
2023-03-17T04:42:47.726Z,1004.19
2023-03-17T04:43:47.831Z,1004.25
2023-03-17T04:44:47.713Z,1004.19
2023-03-17T04:45:47.742Z,1004.21
2023-03-17T04:46:47.714Z,1004.20
2023-03-17T04:47:48.636Z,1004.22
2023-03-17T04:48:47.655Z,1004.25
2023-03-17T04:49:47.639Z,1004.26
2023-03-17T04:50:47.633Z,1004.28
2023-03-17T04:51:47.624Z,1004.28
2023-03-17T04:52:47.626Z,1004.25
2023-03-17T04:53:47.593Z,1004.26
2023-03-17T04:54:47.574Z,1004.32
2023-03-17T04:55:47.570Z,1004.34
2023-03-17T04:56:47.564Z,1004.33
2023-03-17T04:57:47.552Z,1004.31
2023-03-17T04:58:47.570Z,1004.32
2023-03-17T04:59:47.528Z,1004.28
2023-03-17T05:00:48.500Z,1004.28
2023-03-17T05:01:47.497Z,1004.27
2023-03-17T05:02:47.487Z,1004.22
2023-03-17T05:03:47.462Z,1004.24
2023-03-17T05:04:47.489Z,1004.18
2023-03-17T05:05:47.439Z,1004.22
2023-03-17T05:06:47.421Z,1004.22
2023-03-17T05:07:47.421Z,1004.18
2023-03-17T05:08:47.401Z,1004.20
2023-03-17T05:09:48.343Z,1004.21
2023-03-17T05:10:47.401Z,1004.23
2023-03-17T05:11:47.368Z,1004.28
2023-03-17T05:12:47.343Z,1004.30
2023-03-17T05:13:47.340Z,1004.29
2023-03-17T05:14:47.350Z,1004.32
2023-03-17T05:15:47.320Z,1004.29
2023-03-17T05:16:47.412Z,1004.30
2023-03-17T05:17:47.287Z,1004.26
2023-03-17T05:18:47.269Z,1004.30
2023-03-17T05:19:47.255Z,1004.32
2023-03-17T05:20:47.251Z,1004.39
2023-03-17T05:21:47.249Z,1004.39
2023-03-17T05:22:48.207Z,1004.37
2023-03-17T05:23:47.211Z,1004.40
2023-03-17T05:24:47.197Z,1004.37
2023-03-17T05:25:47.178Z,1004.44
2023-03-17T05:26:47.167Z,1004.37
2023-03-17T05:27:47.157Z,1004.40
2023-03-17T05:28:47.262Z,1004.43
2023-03-17T05:29:47.140Z,1004.39
2023-03-17T05:30:47.147Z,1004.49
2023-03-17T05:31:47.122Z,1004.50
2023-03-17T05:32:47.170Z,1004.43
2023-03-17T05:33:47.084Z,1004.46
2023-03-17T05:34:47.176Z,1004.46
2023-03-17T05:35:47.067Z,1004.47
2023-03-17T05:36:47.031Z,1004.52
2023-03-17T05:37:47.032Z,1004.55
2023-03-17T05:38:47.026Z,1004.48
2023-03-17T05:39:47.025Z,1004.47
2023-03-17T05:40:47.104Z,1004.48
2023-03-17T05:41:46.982Z,1004.43
2023-03-17T05:42:46.968Z,1004.45
2023-03-17T05:43:47.005Z,1004.42
2023-03-17T05:44:46.943Z,1004.45
2023-03-17T05:45:46.962Z,1004.49
2023-03-17T05:46:46.963Z,1004.48
2023-03-17T05:47:47.866Z,1004.45
2023-03-17T05:48:46.902Z,1004.48
2023-03-17T05:49:46.886Z,1004.46
2023-03-17T05:50:46.869Z,1004.45
2023-03-17T05:51:46.859Z,1004.47
2023-03-17T05:52:46.954Z,1004.49
2023-03-17T05:53:46.827Z,1004.47
2023-03-17T05:54:46.810Z,1004.53
2023-03-17T05:55:46.806Z,1004.56
2023-03-17T05:56:46.783Z,1004.55
2023-03-17T05:57:46.782Z,1004.51
2023-03-17T05:58:47.743Z,1004.48
2023-03-17T05:59:46.761Z,1004.48
2023-03-17T06:00:46.734Z,1004.51
2023-03-17T06:01:46.731Z,1004.56
2023-03-17T06:02:46.828Z,1004.54
2023-03-17T06:03:46.762Z,1004.49
2023-03-17T06:04:46.808Z,1004.47
2023-03-17T06:05:46.676Z,1004.51
2023-03-17T06:06:46.667Z,1004.49
2023-03-17T06:07:54.083Z,1004.50
2023-03-17T06:08:47.635Z,1004.55
2023-03-17T06:09:46.634Z,1004.44
2023-03-17T06:10:46.635Z,1004.42
2023-03-17T06:11:46.598Z,1004.38
2023-03-17T06:12:46.580Z,1004.36
2023-03-17T06:13:46.581Z,1004.43
2023-03-17T06:14:46.791Z,1004.41
2023-03-17T06:15:46.618Z,1004.48
2023-03-17T06:16:46.654Z,1004.46
2023-03-17T06:17:46.539Z,1004.34
2023-03-17T06:18:46.513Z,1004.35
2023-03-17T06:19:49.007Z,1004.32
2023-03-17T06:20:46.485Z,1004.34
2023-03-17T06:21:47.426Z,1004.33
2023-03-17T06:23:02.725Z,1004.40
2023-03-17T06:23:47.447Z,1004.40
2023-03-17T06:24:46.438Z,1004.42
2023-03-17T06:25:46.420Z,1004.41
2023-03-17T06:26:46.409Z,1004.45
2023-03-17T06:27:46.407Z,1004.43
2023-03-17T06:28:46.422Z,1004.45
2023-03-17T06:29:46.378Z,1004.40
2023-03-17T06:30:46.379Z,1004.41
2023-03-17T06:31:46.356Z,1004.36
2023-03-17T06:32:46.373Z,1004.36
2023-03-17T06:33:46.329Z,1004.40
2023-03-17T06:34:46.439Z,1004.36
2023-03-17T06:35:46.311Z,1004.36
2023-03-17T06:36:46.280Z,1004.36
2023-03-17T06:37:46.281Z,1004.36
2023-03-17T06:38:46.261Z,1004.33
2023-03-17T06:39:46.257Z,1004.39
2023-03-17T06:40:46.264Z,1004.39
2023-03-17T06:41:46.243Z,1004.42
2023-03-17T06:42:46.206Z,1004.38
2023-03-17T06:43:46.194Z,1004.34
2023-03-17T06:44:46.175Z,1004.39
2023-03-17T06:45:46.172Z,1004.34
2023-03-17T06:46:46.184Z,1004.37
2023-03-17T06:47:46.145Z,1004.39
2023-03-17T06:48:46.135Z,1004.39
2023-03-17T06:49:46.150Z,1004.38
2023-03-17T06:50:46.097Z,1004.28
2023-03-17T06:51:46.095Z,1004.29
2023-03-17T06:52:46.905Z,1004.29
2023-03-17T06:53:46.082Z,1004.26
2023-03-17T06:54:46.066Z,1004.23
2023-03-17T06:55:46.046Z,1004.17
2023-03-17T06:56:46.044Z,1004.21
2023-03-17T06:57:46.018Z,1004.23
2023-03-17T06:58:46.100Z,1004.21
2023-03-17T06:59:45.992Z,1004.21
2023-03-17T07:00:46.006Z,1004.23
2023-03-17T07:01:45.984Z,1004.18
2023-03-17T07:02:45.955Z,1004.23
2023-03-17T07:03:45.951Z,1004.25
2023-03-17T07:04:46.040Z,1004.30
2023-03-17T07:05:45.933Z,1004.30
2023-03-17T07:06:45.894Z,1004.28
2023-03-17T07:07:45.936Z,1004.27
2023-03-17T07:08:45.885Z,1004.29
2023-03-17T07:09:45.864Z,1004.27
2023-03-17T07:10:45.983Z,1004.28
2023-03-17T07:11:45.851Z,1004.28
2023-03-17T07:12:45.964Z,1004.27
2023-03-17T07:13:45.827Z,1004.28
2023-03-17T07:14:45.821Z,1004.30
2023-03-17T07:15:46.762Z,1004.36
2023-03-17T07:16:45.848Z,1004.30
2023-03-17T07:17:45.899Z,1004.34
2023-03-17T07:18:45.768Z,1004.34
2023-03-17T07:19:45.740Z,1004.37
2023-03-17T07:20:45.747Z,1004.34
2023-03-17T07:21:47.065Z,1004.27
2023-03-17T07:22:45.825Z,1004.27
2023-03-17T07:23:45.729Z,1004.34
2023-03-17T07:24:45.684Z,1004.41
2023-03-17T07:25:45.767Z,1004.36
2023-03-17T07:26:45.662Z,1004.36
2023-03-17T07:27:45.736Z,1004.34
2023-03-17T07:28:45.802Z,1004.32
2023-03-17T07:29:45.629Z,1004.34
2023-03-17T07:30:45.874Z,1004.31
2023-03-17T07:31:45.680Z,1004.35
2023-03-17T07:32:45.623Z,1004.34
2023-03-17T07:33:45.881Z,1004.40
2023-03-17T07:34:45.581Z,1004.38
2023-03-17T07:35:45.609Z,1004.36
2023-03-17T07:36:45.552Z,1004.37
2023-03-17T07:37:45.671Z,1004.38
2023-03-17T07:38:45.678Z,1004.30
2023-03-17T07:39:45.561Z,1004.35
2023-03-17T07:40:45.927Z,1004.41
2023-03-17T07:41:45.483Z,1004.34
2023-03-17T07:42:45.443Z,1004.37
2023-03-17T07:43:45.582Z,1004.42
2023-03-17T07:44:45.437Z,1004.44
2023-03-17T07:45:45.604Z,1004.38
2023-03-17T07:46:45.416Z,1004.37
2023-03-17T07:47:45.389Z,1004.38
2023-03-17T07:48:45.408Z,1004.36
2023-03-17T07:49:45.370Z,1004.35
2023-03-17T07:50:45.759Z,1004.32
2023-03-17T07:51:45.547Z,1004.35
2023-03-17T07:52:45.532Z,1004.30
2023-03-17T07:53:45.397Z,1004.32
2023-03-17T07:54:45.666Z,1004.24
2023-03-17T07:55:45.316Z,1004.30
2023-03-17T07:56:45.855Z,1004.26
2023-03-17T07:57:45.584Z,1004.29
2023-03-17T07:58:45.823Z,1004.30
2023-03-17T07:59:46.256Z,1004.28
2023-03-17T08:00:45.322Z,1004.28
2023-03-17T08:01:46.196Z,1004.26
2023-03-17T08:02:46.880Z,1004.24
2023-03-17T08:03:45.276Z,1004.22
2023-03-17T08:04:45.306Z,1004.22
2023-03-17T08:05:45.163Z,1004.17
2023-03-17T08:06:45.166Z,1004.21
2023-03-17T08:07:45.159Z,1004.17
2023-03-17T08:08:45.157Z,1004.12
2023-03-17T08:09:45.221Z,1004.11
2023-03-17T08:10:45.134Z,1004.11
2023-03-17T08:11:45.113Z,1004.06
2023-03-17T08:12:45.163Z,1004.07
2023-03-17T08:13:45.151Z,1004.05
2023-03-17T08:14:46.004Z,1004.05
2023-03-17T08:15:45.146Z,1004.04
2023-03-17T08:16:45.119Z,1004.04
2023-03-17T08:17:45.021Z,1004.03
2023-03-17T08:18:45.174Z,1004.04
2023-03-17T08:19:44.988Z,1004.03
2023-03-17T08:20:45.164Z,1004.02
2023-03-17T08:21:45.793Z,1004.02
2023-03-17T08:22:44.976Z,1004.00
2023-03-17T08:23:45.160Z,1003.97
2023-03-17T08:24:44.965Z,1003.96
2023-03-17T08:25:44.905Z,1003.94
2023-03-17T08:26:44.888Z,1003.94
2023-03-17T08:27:44.927Z,1003.91
2023-03-17T08:28:44.975Z,1003.96
2023-03-17T08:29:44.940Z,1003.94
2023-03-17T08:30:44.953Z,1003.86
2023-03-17T08:31:46.659Z,1003.83
2023-03-17T08:32:44.959Z,1003.88
2023-03-17T08:33:44.840Z,1003.86
2023-03-17T08:34:44.813Z,1003.84
2023-03-17T08:35:44.803Z,1003.79
2023-03-17T08:36:45.746Z,1003.80
2023-03-17T08:37:44.781Z,1003.83
2023-03-17T08:38:44.739Z,1003.88
2023-03-17T08:39:44.725Z,1003.91
2023-03-17T08:40:44.915Z,1003.90
2023-03-17T08:41:44.750Z,1003.91
2023-03-17T08:42:44.900Z,1003.82
2023-03-17T08:43:44.830Z,1003.85
2023-03-17T08:44:44.670Z,1003.75
2023-03-17T08:45:44.696Z,1003.80
2023-03-17T08:46:44.794Z,1003.81
2023-03-17T08:47:44.621Z,1003.81
2023-03-17T08:48:44.624Z,1003.88
2023-03-17T08:49:44.808Z,1003.85
2023-03-17T08:50:44.594Z,1003.93
2023-03-17T08:51:44.590Z,1003.93
2023-03-17T08:52:44.619Z,1003.92
2023-03-17T08:53:44.563Z,1003.90
2023-03-17T08:54:44.558Z,1003.89
2023-03-17T08:55:44.526Z,1003.92
2023-03-17T08:56:44.521Z,1003.93
2023-03-17T08:57:44.537Z,1003.87
2023-03-17T08:58:44.519Z,1003.89
2023-03-17T08:59:44.517Z,1003.95
2023-03-17T09:00:44.458Z,1003.94
2023-03-17T09:01:44.465Z,1003.91
2023-03-17T09:02:44.485Z,1003.93
2023-03-17T09:03:44.443Z,1003.92
2023-03-17T09:04:44.481Z,1003.96
2023-03-17T09:05:44.691Z,1003.98
2023-03-17T09:07:01.846Z,1004.06
2023-03-17T09:07:45.427Z,1003.97
2023-03-17T09:08:44.377Z,1004.03
2023-03-17T09:09:44.359Z,1004.02
2023-03-17T09:10:45.346Z,1004.07
2023-03-17T09:11:44.439Z,1004.11
2023-03-17T09:12:44.440Z,1004.10
2023-03-17T09:13:44.556Z,1004.10
2023-03-17T09:14:45.194Z,1004.09
2023-03-17T09:15:45.181Z,1004.10
2023-03-17T09:16:44.779Z,1004.04
2023-03-17T09:17:44.417Z,1004.05
2023-03-17T09:18:44.242Z,1004.15
2023-03-17T09:19:44.296Z,1004.11
2023-03-17T09:20:44.297Z,1004.09
2023-03-17T09:21:44.429Z,1004.10
2023-03-17T09:22:44.560Z,1004.09
2023-03-17T09:23:44.201Z,1004.09
2023-03-17T09:24:44.716Z,1004.07
2023-03-17T09:25:44.201Z,1004.11
2023-03-17T09:26:44.221Z,1004.01
2023-03-17T09:27:44.273Z,1004.05
2023-03-17T09:28:44.822Z,1003.98
2023-03-17T09:29:44.131Z,1003.99
2023-03-17T09:30:44.158Z,1003.97
2023-03-17T09:31:44.293Z,1003.94
2023-03-17T09:32:44.240Z,1003.95
2023-03-17T09:33:44.080Z,1003.90
2023-03-17T09:34:44.162Z,1003.89
2023-03-17T09:35:44.436Z,1003.90
2023-03-17T09:36:44.006Z,1003.90
2023-03-17T09:37:44.258Z,1003.93
2023-03-17T09:38:44.689Z,1003.90
2023-03-17T09:39:44.429Z,1003.99
2023-03-17T09:40:44.031Z,1004.00
2023-03-17T09:41:44.577Z,1004.03
2023-03-17T09:42:43.937Z,1004.04
2023-03-17T09:43:43.961Z,1004.04
2023-03-17T09:44:43.931Z,1004.01
2023-03-17T09:45:44.166Z,1004.00
2023-03-17T09:46:45.042Z,1003.95
2023-03-17T09:47:43.872Z,1003.95
2023-03-17T09:48:43.898Z,1004.01
2023-03-17T09:49:43.950Z,1003.89
2023-03-17T09:50:43.842Z,1003.86
2023-03-17T09:51:43.845Z,1003.83
2023-03-17T09:52:43.841Z,1003.88
2023-03-17T09:53:44.745Z,1003.87
2023-03-17T09:54:43.798Z,1003.84
2023-03-17T09:55:43.765Z,1003.80
2023-03-17T09:56:43.758Z,1003.79
2023-03-17T09:57:43.746Z,1003.80
2023-03-17T09:58:43.998Z,1003.83
2023-03-17T09:59:43.736Z,1003.86
2023-03-17T10:00:44.276Z,1003.87
2023-03-17T10:01:43.773Z,1003.89
2023-03-17T10:02:43.689Z,1003.92
2023-03-17T10:03:43.664Z,1003.87
2023-03-17T10:04:43.896Z,1003.86
2023-03-17T10:05:43.713Z,1003.95
2023-03-17T10:06:43.966Z,1003.93
2023-03-17T10:07:47.328Z,1003.89
2023-03-17T10:08:43.692Z,1003.86
2023-03-17T10:09:43.590Z,1003.85
2023-03-17T10:10:43.727Z,1003.85
2023-03-17T10:11:43.586Z,1003.86
2023-03-17T10:12:43.566Z,1003.88
2023-03-17T10:13:43.590Z,1003.86
2023-03-17T10:14:44.173Z,1003.89
2023-03-17T10:15:43.509Z,1003.97
2023-03-17T10:16:43.521Z,1003.99
2023-03-17T10:17:43.563Z,1004.01
2023-03-17T10:18:43.484Z,1003.96
2023-03-17T10:19:43.471Z,1003.99
2023-03-17T10:20:43.465Z,1003.95
2023-03-17T10:21:43.441Z,1003.91
2023-03-17T10:22:43.462Z,1004.04
2023-03-17T10:23:43.413Z,1004.02
2023-03-17T10:24:43.412Z,1004.04
2023-03-17T10:25:44.342Z,1004.04
2023-03-17T10:26:43.863Z,1004.03
2023-03-17T10:27:43.357Z,1004.03
2023-03-17T10:28:43.391Z,1004.03
2023-03-17T10:29:43.369Z,1003.97
2023-03-17T10:30:43.322Z,1003.97
2023-03-17T10:31:43.400Z,1003.99
2023-03-17T10:32:43.356Z,1003.96
2023-03-17T10:33:43.282Z,1003.95
2023-03-17T10:34:43.301Z,1003.97
2023-03-17T10:35:43.273Z,1003.86
2023-03-17T10:36:43.254Z,1003.91
2023-03-17T10:37:43.974Z,1003.81
2023-03-17T10:38:43.228Z,1003.84
2023-03-17T10:39:44.047Z,1003.83
2023-03-17T10:40:43.224Z,1003.80
2023-03-17T10:41:43.457Z,1003.86
2023-03-17T10:42:43.184Z,1003.76
2023-03-17T10:43:44.118Z,1003.73
2023-03-17T10:44:43.182Z,1003.73
2023-03-17T10:45:45.215Z,1003.74
2023-03-17T10:46:43.254Z,1003.74
2023-03-17T10:47:43.940Z,1003.80
2023-03-17T10:48:43.103Z,1003.78
2023-03-17T10:49:43.094Z,1003.79
2023-03-17T10:50:43.080Z,1003.82
2023-03-17T10:51:43.079Z,1003.78
2023-03-17T10:52:43.073Z,1003.81
2023-03-17T10:53:43.037Z,1003.81
2023-03-17T10:54:43.031Z,1003.82
2023-03-17T10:55:43.010Z,1003.73
2023-03-17T10:56:42.998Z,1003.76
2023-03-17T10:57:43.000Z,1003.78
2023-03-17T10:58:43.093Z,1003.76
2023-03-17T10:59:44.399Z,1003.79
2023-03-17T11:00:42.982Z,1003.79
2023-03-17T11:01:42.948Z,1003.75
2023-03-17T11:02:42.917Z,1003.75
2023-03-17T11:03:43.625Z,1003.73
2023-03-17T11:04:43.042Z,1003.73
2023-03-17T11:05:43.025Z,1003.69
2023-03-17T11:06:42.880Z,1003.76
2023-03-17T11:07:42.860Z,1003.76
2023-03-17T11:08:42.850Z,1003.75
2023-03-17T11:09:43.021Z,1003.76
2023-03-17T11:10:42.885Z,1003.71
2023-03-17T11:11:42.810Z,1003.72
2023-03-17T11:12:42.799Z,1003.70
2023-03-17T11:13:42.932Z,1003.78
2023-03-17T11:14:42.983Z,1003.74
2023-03-17T11:15:42.807Z,1003.79
2023-03-17T11:16:43.057Z,1003.76
2023-03-17T11:17:42.915Z,1003.79
2023-03-17T11:18:42.723Z,1003.76
2023-03-17T11:19:42.705Z,1003.82
2023-03-17T11:20:42.707Z,1003.81
2023-03-17T11:21:42.688Z,1003.78
2023-03-17T11:22:42.698Z,1003.82
2023-03-17T11:23:42.701Z,1003.81
2023-03-17T11:24:42.649Z,1003.85
2023-03-17T11:25:42.638Z,1003.83
2023-03-17T11:26:42.629Z,1003.76
2023-03-17T11:27:42.634Z,1003.80
2023-03-17T11:28:42.615Z,1003.78
2023-03-17T11:29:42.584Z,1003.78
2023-03-17T11:30:42.571Z,1003.71
2023-03-17T11:31:42.625Z,1003.76
2023-03-17T11:32:42.577Z,1003.74
2023-03-17T11:33:42.536Z,1003.74
2023-03-17T11:34:42.651Z,1003.75
2023-03-17T11:35:42.543Z,1003.70
2023-03-17T11:36:42.518Z,1003.71
2023-03-17T11:37:42.485Z,1003.73
2023-03-17T11:38:42.470Z,1003.74
2023-03-17T11:39:42.466Z,1003.69
2023-03-17T11:40:42.502Z,1003.67
2023-03-17T11:41:42.445Z,1003.65
2023-03-17T11:42:42.427Z,1003.65
2023-03-17T11:43:42.409Z,1003.66
2023-03-17T11:44:42.397Z,1003.63
2023-03-17T11:45:42.408Z,1003.63
2023-03-17T11:46:42.397Z,1003.63
2023-03-17T11:47:43.304Z,1003.63
2023-03-17T11:48:42.478Z,1003.61
2023-03-17T11:49:42.345Z,1003.58
2023-03-17T11:50:42.318Z,1003.59
2023-03-17T11:51:42.307Z,1003.56
2023-03-17T11:52:42.332Z,1003.59
2023-03-17T11:53:42.274Z,1003.57
2023-03-17T11:54:42.274Z,1003.53
2023-03-17T11:55:42.625Z,1003.51
2023-03-17T11:56:42.246Z,1003.54
2023-03-17T11:57:42.222Z,1003.49
2023-03-17T11:58:43.212Z,1003.47
2023-03-17T11:59:42.192Z,1003.48
2023-03-17T12:00:43.807Z,1003.48
2023-03-17T12:01:42.171Z,1003.50
2023-03-17T12:02:42.165Z,1003.42
2023-03-17T12:03:42.170Z,1003.49
2023-03-17T12:04:42.209Z,1003.45
2023-03-17T12:05:42.123Z,1003.40